createdAt,value
2023-05-15T00:01:48.288Z,100.00
2023-05-15T00:04:14.743Z,100.00
2023-05-15T00:06:41.138Z,100.00
2023-05-15T00:09:08.595Z,100.00
2023-05-15T00:11:34.945Z,100.00
2023-05-15T00:14:01.332Z,100.00
2023-05-15T00:16:27.674Z,100.00
2023-05-15T00:18:54.090Z,100.00
2023-05-15T00:21:20.630Z,100.00
2023-05-15T00:23:47.545Z,100.00
2023-05-15T00:26:15.639Z,100.00
2023-05-15T00:28:41.983Z,100.00
2023-05-15T00:31:08.845Z,100.00
2023-05-15T00:33:35.336Z,100.00
2023-05-15T00:36:02.900Z,100.00
2023-05-15T00:38:30.840Z,100.00
2023-05-15T00:40:57.210Z,100.00
2023-05-15T00:43:25.709Z,100.00
2023-05-15T00:45:53.698Z,100.00
2023-05-15T00:48:22.528Z,100.00
2023-05-15T00:50:51.393Z,100.00
2023-05-15T00:53:18.570Z,100.00
2023-05-15T00:55:49.828Z,100.00
2023-05-15T00:58:18.571Z,100.00
2023-05-15T01:00:46.421Z,100.00
2023-05-15T01:03:13.211Z,100.00
2023-05-15T01:05:39.628Z,100.00
2023-05-15T01:08:18.888Z,100.00
2023-05-15T01:10:47.342Z,100.00
2023-05-15T01:13:15.457Z,100.00
2023-05-15T01:15:42.047Z,100.00
2023-05-15T01:18:08.752Z,100.00
2023-05-15T01:21:06.335Z,100.00
2023-05-15T01:23:46.101Z,100.00
2023-05-15T01:26:44.117Z,100.00
2023-05-15T01:29:22.003Z,100.00
2023-05-15T01:31:57.555Z,100.00
2023-05-15T01:34:32.196Z,100.00
2023-05-15T01:37:02.703Z,100.00
2023-05-15T01:39:32.639Z,100.00
2023-05-15T01:42:10.514Z,100.00
2023-05-15T01:44:41.142Z,100.00
2023-05-15T01:47:13.640Z,100.00
2023-05-15T01:49:42.906Z,100.00
2023-05-15T01:52:15.827Z,100.00
2023-05-15T01:54:42.765Z,100.00
2023-05-15T01:57:10.309Z,100.00
2023-05-15T01:59:37.394Z,100.00
2023-05-15T02:02:05.338Z,100.00
2023-05-15T02:04:33.783Z,100.00
2023-05-15T02:07:03.926Z,100.00
2023-05-15T02:09:31.749Z,100.00
2023-05-15T02:12:00.803Z,100.00
2023-05-15T02:14:29.199Z,100.00
2023-05-15T02:16:55.713Z,100.00
2023-05-15T02:19:22.074Z,100.00
2023-05-15T02:21:48.619Z,100.00
2023-05-15T02:24:14.975Z,100.00
2023-05-15T02:26:51.406Z,100.00
2023-05-15T02:29:48.601Z,100.00
2023-05-15T02:32:29.057Z,100.00
2023-05-15T02:35:12.558Z,100.00
2023-05-15T02:37:44.923Z,100.00
2023-05-15T02:40:13.341Z,100.00
2023-05-15T02:42:41.632Z,100.00
2023-05-15T02:45:10.338Z,100.00
2023-05-15T02:47:37.244Z,100.00
2023-05-15T02:50:04.618Z,100.00
2023-05-15T02:52:34.673Z,100.00
2023-05-15T02:55:01.398Z,100.00
2023-05-15T02:57:27.737Z,100.00
2023-05-15T02:59:55.389Z,100.00
2023-05-15T03:02:21.756Z,100.00
2023-05-15T03:04:48.185Z,100.00
2023-05-15T03:07:14.590Z,100.00
2023-05-15T03:09:41.227Z,100.00
2023-05-15T03:12:08.573Z,100.00
2023-05-15T03:14:34.875Z,100.00
2023-05-15T03:17:01.427Z,100.00
2023-05-15T03:19:27.760Z,100.00
2023-05-15T03:21:54.209Z,100.00
2023-05-15T03:24:21.277Z,100.00
2023-05-15T03:26:47.585Z,100.00
2023-05-15T03:29:13.952Z,100.00
2023-05-15T03:31:40.389Z,100.00
2023-05-15T03:34:06.800Z,100.00
2023-05-15T03:36:33.193Z,100.00
2023-05-15T03:38:59.553Z,100.00
2023-05-15T03:41:27.753Z,100.00
2023-05-15T03:43:54.075Z,100.00
2023-05-15T03:46:20.570Z,100.00
2023-05-15T03:48:46.955Z,100.00
2023-05-15T03:51:13.280Z,100.00
2023-05-15T03:53:39.948Z,100.00
2023-05-15T03:56:06.491Z,100.00
2023-05-15T03:58:32.945Z,100.00
2023-05-15T04:00:59.370Z,100.00
2023-05-15T04:03:25.784Z,100.00
2023-05-15T04:05:52.325Z,100.00
2023-05-15T04:08:18.677Z,100.00
2023-05-15T04:10:45.042Z,100.00
2023-05-15T04:13:11.421Z,100.00
2023-05-15T04:15:37.859Z,100.00
2023-05-15T04:18:04.460Z,100.00
2023-05-15T04:20:30.969Z,100.00
2023-05-15T04:22:57.312Z,100.00
2023-05-15T04:25:24.389Z,100.00
2023-05-15T04:27:51.066Z,100.00
2023-05-15T04:30:17.552Z,100.00
2023-05-15T04:32:44.258Z,100.00
2023-05-15T04:35:14.934Z,100.00
2023-05-15T04:37:42.776Z,100.00
2023-05-15T04:40:09.841Z,100.00
2023-05-15T04:42:39.060Z,100.00
2023-05-15T04:45:07.227Z,100.00
2023-05-15T04:47:34.004Z,100.00
2023-05-15T04:50:00.439Z,100.00
2023-05-15T04:52:26.868Z,100.00
2023-05-15T04:54:55.456Z,100.00
2023-05-15T04:57:22.173Z,100.00
2023-05-15T04:59:48.644Z,100.00
2023-05-15T05:02:14.969Z,100.00
2023-05-15T05:04:42.838Z,100.00
2023-05-15T05:07:09.149Z,100.00
2023-05-15T05:09:35.456Z,100.00
2023-05-15T05:12:02.214Z,100.00
2023-05-15T05:14:28.714Z,100.00
2023-05-15T05:16:55.220Z,100.00
2023-05-15T05:19:21.509Z,100.00
2023-05-15T05:21:47.834Z,100.00
2023-05-15T05:24:14.209Z,100.00
2023-05-15T05:26:44.181Z,100.00
2023-05-15T05:29:10.719Z,100.00
2023-05-15T05:31:37.125Z,100.00
2023-05-15T05:34:03.671Z,100.00
2023-05-15T05:36:30.001Z,100.00
2023-05-15T05:38:56.369Z,100.00
2023-05-15T05:41:23.126Z,100.00
2023-05-15T05:43:49.473Z,100.00
2023-05-15T05:46:15.792Z,100.00
2023-05-15T05:48:42.482Z,100.00
2023-05-15T05:51:08.788Z,100.00
2023-05-15T05:53:35.793Z,100.00
2023-05-15T05:56:03.291Z,100.00
2023-05-15T05:58:29.683Z,100.00
2023-05-15T06:00:56.294Z,100.00
2023-05-15T06:03:22.810Z,100.00
2023-05-15T06:05:49.362Z,100.00
2023-05-15T06:08:16.843Z,100.00
2023-05-15T06:10:43.197Z,100.00
2023-05-15T06:13:09.524Z,100.00
2023-05-15T06:15:35.879Z,100.00
2023-05-15T06:18:02.354Z,100.00
2023-05-15T06:20:29.025Z,100.00
2023-05-15T06:22:55.405Z,100.00
2023-05-15T06:25:21.949Z,100.00
2023-05-15T06:27:48.277Z,100.00
2023-05-15T06:30:14.924Z,100.00
2023-05-15T06:32:41.881Z,100.00
2023-05-15T06:35:09.913Z,100.00
2023-05-15T06:37:36.982Z,100.00
2023-05-15T06:40:04.971Z,100.00
2023-05-15T06:42:31.836Z,100.00
2023-05-15T06:44:58.252Z,100.00
2023-05-15T06:47:24.762Z,100.00
2023-05-15T06:49:51.207Z,100.00
2023-05-15T06:52:17.576Z,100.00
2023-05-15T06:54:44.032Z,100.00
2023-05-15T06:57:10.374Z,100.00
2023-05-15T06:59:36.714Z,100.00
2023-05-15T07:02:03.612Z,100.00
2023-05-15T07:04:31.108Z,100.00
2023-05-15T07:06:57.874Z,100.00
2023-05-15T07:09:24.947Z,100.00
2023-05-15T07:11:51.298Z,100.00
2023-05-15T07:14:17.917Z,100.00
2023-05-15T07:16:45.044Z,100.00
2023-05-15T07:19:11.467Z,100.00
2023-05-15T07:21:39.274Z,100.00
2023-05-15T07:24:05.845Z,100.00
2023-05-15T07:26:38.667Z,100.00
2023-05-15T07:29:13.222Z,100.00
2023-05-15T07:31:40.427Z,100.00
2023-05-15T07:34:07.010Z,100.00
2023-05-15T07:36:33.372Z,100.00
2023-05-15T07:38:59.732Z,100.00
2023-05-15T07:41:26.045Z,100.00
2023-05-15T07:43:52.431Z,100.00
2023-05-15T07:46:18.851Z,100.00
2023-05-15T07:48:45.240Z,100.00
2023-05-15T07:51:11.576Z,100.00
2023-05-15T07:53:37.904Z,100.00
2023-05-15T07:56:04.728Z,100.00
2023-05-15T07:58:31.056Z,100.00
2023-05-15T08:00:57.432Z,100.00
2023-05-15T08:03:23.890Z,100.00
2023-05-15T08:05:50.392Z,100.00
2023-05-15T08:08:16.731Z,100.00
2023-05-15T08:10:43.080Z,100.00
2023-05-15T08:13:09.388Z,100.00
2023-05-15T08:15:35.875Z,100.00
2023-05-15T08:18:02.343Z,100.00
2023-05-15T08:20:28.744Z,100.00
2023-05-15T08:22:55.045Z,100.00
2023-05-15T08:25:21.401Z,100.00
2023-05-15T08:27:47.741Z,100.00
2023-05-15T08:30:14.287Z,100.00
2023-05-15T08:32:42.761Z,100.00
2023-05-15T08:35:09.139Z,100.00
2023-05-15T08:37:36.074Z,100.00
2023-05-15T08:40:05.088Z,100.00
2023-05-15T08:42:37.604Z,100.00
2023-05-15T08:45:05.526Z,100.00
2023-05-15T08:47:35.618Z,100.00
2023-05-15T08:50:08.241Z,100.00
2023-05-15T08:52:35.166Z,100.00
2023-05-15T08:55:03.734Z,100.00
2023-05-15T08:57:31.840Z,100.00
2023-05-15T08:59:59.022Z,100.00
2023-05-15T09:02:26.089Z,100.00
2023-05-15T09:04:52.568Z,100.00
2023-05-15T09:07:20.493Z,100.00
2023-05-15T09:09:47.562Z,100.00
2023-05-15T09:12:16.254Z,100.00
2023-05-15T09:14:43.456Z,100.00
2023-05-15T09:17:11.559Z,100.00
2023-05-15T09:19:42.339Z,100.00
2023-05-15T09:22:17.568Z,100.00
2023-05-15T09:24:45.474Z,100.00
2023-05-15T09:27:11.873Z,100.00
2023-05-15T09:29:39.836Z,100.00
2023-05-15T09:32:08.342Z,100.00
2023-05-15T09:34:37.599Z,100.00
2023-05-15T09:37:06.241Z,100.00
2023-05-15T09:39:33.950Z,100.00
2023-05-15T09:42:08.066Z,100.00
2023-05-15T09:44:34.815Z,100.00
2023-05-15T09:47:01.857Z,100.00
2023-05-15T09:49:30.582Z,100.00
2023-05-15T09:51:59.353Z,100.00
2023-05-15T09:54:27.341Z,100.00
2023-05-15T09:56:54.007Z,100.00
2023-05-15T09:59:23.016Z,100.00
2023-05-15T10:01:51.563Z,100.00
2023-05-15T10:04:18.554Z,100.00
2023-05-15T10:06:48.738Z,100.00
2023-05-15T10:09:15.868Z,100.00
2023-05-15T10:11:44.016Z,100.00
2023-05-15T10:14:13.101Z,100.00
2023-05-15T10:16:40.805Z,100.00
2023-05-15T10:19:09.731Z,100.00
2023-05-15T10:21:39.453Z,100.00
2023-05-15T10:24:07.292Z,100.00
2023-05-15T10:26:40.713Z,100.00
2023-05-15T10:29:10.169Z,100.00
2023-05-15T10:31:36.756Z,100.00
2023-05-15T10:34:04.572Z,100.00
2023-05-15T10:36:35.042Z,100.00
2023-05-15T10:39:04.405Z,100.00
2023-05-15T10:41:32.979Z,100.00
2023-05-15T10:44:00.505Z,100.00
2023-05-15T10:46:28.837Z,100.00
2023-05-15T10:48:55.249Z,100.00
2023-05-15T10:51:30.075Z,98.15
2023-05-15T10:53:57.474Z,95.18
2023-05-15T10:56:30.406Z,93.39
2023-05-15T10:58:56.895Z,94.74
2023-05-15T11:01:27.436Z,94.79
2023-05-15T11:04:17.125Z,95.46
2023-05-15T11:06:45.626Z,92.77
2023-05-15T11:09:27.885Z,92.04
2023-05-15T11:11:57.160Z,90.99
2023-05-15T11:14:28.257Z,88.67
2023-05-15T11:16:54.628Z,91.77
2023-05-15T11:19:55.519Z,92.52
2023-05-15T11:22:30.396Z,89.00
2023-05-15T11:24:59.801Z,87.08
2023-05-15T11:27:27.797Z,87.51
2023-05-15T11:30:13.514Z,84.71
2023-05-15T11:33:01.948Z,84.31
2023-05-15T11:35:32.438Z,84.37
2023-05-15T11:38:20.013Z,83.99
2023-05-15T11:40:55.741Z,83.86
2023-05-15T11:43:26.893Z,82.23
2023-05-15T11:45:57.772Z,82.05
2023-05-15T11:48:25.140Z,81.83
2023-05-15T11:50:55.286Z,81.55
2023-05-15T11:53:22.993Z,78.72
2023-05-15T11:55:52.712Z,76.80
2023-05-15T11:58:22.990Z,79.52
2023-05-15T12:00:51.355Z,79.85
2023-05-15T12:03:24.704Z,75.76
2023-05-15T12:05:58.915Z,78.50
2023-05-15T12:08:30.628Z,75.96
2023-05-15T12:10:58.890Z,76.83
2023-05-15T12:13:25.358Z,77.12
2023-05-15T12:15:51.955Z,75.05
2023-05-15T12:18:18.327Z,73.92
2023-05-15T12:20:48.190Z,75.15
2023-05-15T12:23:17.074Z,71.77
2023-05-15T12:25:46.074Z,72.24
2023-05-15T12:28:12.785Z,73.25
2023-05-15T12:30:39.858Z,72.80
2023-05-15T12:33:07.715Z,74.89
2023-05-15T12:35:35.871Z,72.93
2023-05-15T12:38:06.400Z,73.63
2023-05-15T12:40:37.024Z,76.66
2023-05-15T12:43:07.450Z,73.43
2023-05-15T12:45:36.182Z,73.13
2023-05-15T12:48:03.335Z,72.35
2023-05-15T12:50:32.596Z,69.27
2023-05-15T12:53:02.403Z,69.55
2023-05-15T12:55:36.328Z,70.78
2023-05-15T12:58:07.605Z,69.12
2023-05-15T13:00:40.356Z,67.77
2023-05-15T13:03:09.644Z,68.46
2023-05-15T13:05:37.452Z,72.45
2023-05-15T13:08:05.708Z,70.38
2023-05-15T13:10:34.187Z,68.45
2023-05-15T13:13:00.930Z,67.98
2023-05-15T13:15:36.904Z,70.27
2023-05-15T13:18:08.722Z,69.32
2023-05-15T13:20:42.272Z,69.91
2023-05-15T13:23:11.299Z,70.78
2023-05-15T13:25:37.817Z,69.07
2023-05-15T13:28:06.366Z,67.75
2023-05-15T13:30:34.287Z,69.29
2023-05-15T13:33:01.278Z,69.17
2023-05-15T13:35:27.992Z,67.98
2023-05-15T13:37:54.460Z,66.07
2023-05-15T13:40:21.171Z,66.53
2023-05-15T13:42:47.610Z,65.18
2023-05-15T13:45:16.180Z,67.09
2023-05-15T13:47:43.816Z,67.87
2023-05-15T13:50:12.265Z,67.49
2023-05-15T13:52:39.914Z,67.18
2023-05-15T13:55:09.450Z,69.37
2023-05-15T13:57:37.256Z,68.35
2023-05-15T14:00:10.518Z,69.06
2023-05-15T14:02:36.963Z,67.10
2023-05-15T14:05:04.579Z,67.81
2023-05-15T14:07:31.698Z,68.61
2023-05-15T14:09:58.603Z,70.36
2023-05-15T14:12:24.981Z,69.76
2023-05-15T14:14:51.396Z,68.01
2023-05-15T14:17:18.383Z,69.49
2023-05-15T14:19:44.785Z,69.17
2023-05-15T14:22:11.215Z,69.82
2023-05-15T14:24:37.662Z,68.74
2023-05-15T14:27:04.513Z,68.75
2023-05-15T14:29:30.978Z,68.83
2023-05-15T14:31:57.396Z,67.00
2023-05-15T14:34:23.935Z,65.90
2023-05-15T14:36:50.732Z,64.99
2023-05-15T14:39:17.829Z,66.47
2023-05-15T14:41:44.555Z,66.55
2023-05-15T14:44:11.141Z,66.65
2023-05-15T14:46:38.008Z,65.44
2023-05-15T14:49:05.274Z,66.68
2023-05-15T14:51:32.284Z,64.66
2023-05-15T14:53:58.898Z,66.65
2023-05-15T14:56:25.850Z,67.93
2023-05-15T14:58:53.531Z,65.16
2023-05-15T15:01:20.366Z,66.92
2023-05-15T15:03:46.887Z,67.60
2023-05-15T15:06:13.276Z,67.96
2023-05-15T15:08:39.675Z,68.81
2023-05-15T15:11:06.800Z,68.78
2023-05-15T15:13:33.189Z,68.28
2023-05-15T15:15:59.557Z,70.31
2023-05-15T15:18:26.213Z,70.19
2023-05-15T15:20:52.870Z,71.27
2023-05-15T15:23:19.181Z,72.47
2023-05-15T15:28:35.089Z,71.08
2023-05-15T15:31:01.698Z,71.53
2023-05-15T15:33:28.663Z,72.59
2023-05-15T15:35:55.349Z,71.52
2023-05-15T15:38:21.710Z,69.50
2023-05-15T15:40:48.081Z,65.80
2023-05-15T15:43:14.403Z,66.70
2023-05-15T15:45:41.009Z,67.28
2023-05-15T15:48:07.416Z,67.63
2023-05-15T15:50:33.802Z,67.58
2023-05-15T15:53:00.130Z,67.15
2023-05-15T15:55:26.449Z,69.76
2023-05-15T15:57:52.820Z,70.69
2023-05-15T16:00:19.337Z,70.42
2023-05-15T16:02:46.327Z,70.30
2023-05-15T16:05:12.769Z,70.02
2023-05-15T16:07:39.098Z,71.07
2023-05-15T16:10:12.620Z,70.97
2023-05-15T16:12:44.840Z,70.51
2023-05-15T16:17:41.455Z,69.78
2023-05-15T16:20:08.060Z,69.08
2023-05-15T16:22:34.420Z,69.40
2023-05-15T16:25:00.898Z,69.71
2023-05-15T16:27:27.338Z,70.27
2023-05-15T16:29:53.674Z,69.39
2023-05-15T16:32:21.157Z,71.05
2023-05-15T16:34:47.914Z,70.64
2023-05-15T16:37:14.448Z,71.74
2023-05-15T16:39:40.907Z,69.41
2023-05-15T16:42:09.298Z,70.00
2023-05-15T16:44:35.870Z,72.34
2023-05-15T16:47:02.493Z,71.47
2023-05-15T16:49:28.822Z,70.53
2023-05-15T16:51:55.126Z,70.45
2023-05-15T16:54:21.423Z,68.87
2023-05-15T16:56:47.770Z,71.26
2023-05-15T16:59:14.100Z,70.65
2023-05-15T17:01:40.572Z,70.28
2023-05-15T17:04:07.141Z,71.24
2023-05-15T17:06:33.487Z,72.06
2023-05-15T17:08:59.885Z,71.85
2023-05-15T17:11:26.256Z,72.44
2023-05-15T17:13:52.591Z,71.43
2023-05-15T17:16:18.954Z,70.80
2023-05-15T17:18:45.331Z,70.61
2023-05-15T17:21:11.745Z,70.98
2023-05-15T17:23:38.112Z,70.22
2023-05-15T17:26:04.453Z,73.45
2023-05-15T17:28:30.806Z,74.52
2023-05-15T17:30:57.163Z,72.86
2023-05-15T17:33:23.521Z,72.81
2023-05-15T17:35:50.155Z,72.92
2023-05-15T17:38:16.605Z,72.46
2023-05-15T17:40:42.960Z,72.65
2023-05-15T17:43:10.126Z,73.80
2023-05-15T17:45:36.790Z,75.92
2023-05-15T17:48:04.815Z,77.78
2023-05-15T17:50:31.170Z,77.73
2023-05-15T17:52:57.510Z,76.90
2023-05-15T17:55:23.982Z,79.43
2023-05-15T17:57:50.500Z,79.30
2023-05-15T18:00:17.085Z,76.60
2023-05-15T18:02:43.488Z,74.18
2023-05-15T18:05:10.082Z,73.86
2023-05-15T18:07:36.396Z,71.01
2023-05-15T18:10:02.888Z,72.03
2023-05-15T18:12:29.261Z,71.15
2023-05-15T18:14:55.690Z,71.22
2023-05-15T18:17:22.133Z,69.94
2023-05-15T18:19:48.456Z,70.54
2023-05-15T18:22:15.561Z,71.05
2023-05-15T18:24:41.904Z,71.44
2023-05-15T18:27:08.295Z,71.06
2023-05-15T18:29:34.662Z,72.45
2023-05-15T18:32:01.130Z,72.79
2023-05-15T18:34:27.514Z,72.82
2023-05-15T18:36:53.934Z,72.68
2023-05-15T18:39:20.515Z,72.82
2023-05-15T18:41:46.903Z,74.21
2023-05-15T18:44:13.199Z,74.43
2023-05-15T18:46:39.661Z,73.84
2023-05-15T18:49:06.138Z,72.78
2023-05-15T18:51:32.599Z,73.61
2023-05-15T18:53:58.926Z,73.07
2023-05-15T18:56:25.487Z,74.62
2023-05-15T18:58:52.096Z,74.83
2023-05-15T19:01:18.522Z,74.01
2023-05-15T19:03:45.151Z,73.68
2023-05-15T19:06:13.240Z,74.10
2023-05-15T19:08:39.606Z,73.74
2023-05-15T19:11:05.978Z,74.46
2023-05-15T19:13:33.056Z,74.13
2023-05-15T19:15:59.458Z,74.68
2023-05-15T19:18:25.782Z,75.13
2023-05-15T19:20:52.168Z,76.11
2023-05-15T19:23:20.433Z,74.81
2023-05-15T19:25:46.789Z,75.58
2023-05-15T19:28:14.674Z,74.79
2023-05-15T19:30:41.279Z,74.61
2023-05-15T19:33:07.650Z,74.77
2023-05-15T19:35:35.947Z,75.09
2023-05-15T19:38:03.743Z,74.53
2023-05-15T19:40:30.137Z,74.63
2023-05-15T19:42:56.500Z,74.46
2023-05-15T19:45:22.809Z,73.95
2023-05-15T19:47:49.214Z,73.97
2023-05-15T19:50:15.684Z,73.96
2023-05-15T19:52:43.982Z,75.34
2023-05-15T19:55:11.647Z,75.76
2023-05-15T19:57:40.021Z,75.67
2023-05-15T20:00:07.884Z,78.19
2023-05-15T20:02:34.439Z,78.28
2023-05-15T20:05:00.939Z,77.98
2023-05-15T20:07:27.286Z,78.88
2023-05-15T20:09:55.332Z,78.99
2023-05-15T20:12:21.869Z,78.72
2023-05-15T20:14:49.628Z,78.26
2023-05-15T20:17:17.697Z,79.67
2023-05-15T20:19:44.286Z,79.72
2023-05-15T20:22:10.746Z,80.96
2023-05-15T20:24:37.670Z,80.57
2023-05-15T20:27:04.514Z,80.33
2023-05-15T20:29:30.888Z,80.69
2023-05-15T20:31:57.466Z,81.29
2023-05-15T20:34:24.006Z,82.84
2023-05-15T20:36:54.319Z,81.86
2023-05-15T20:39:21.258Z,82.55
2023-05-15T20:41:47.691Z,83.40
2023-05-15T20:44:14.075Z,82.67
2023-05-15T20:46:41.271Z,84.22
2023-05-15T20:49:07.637Z,85.02
2023-05-15T20:51:33.995Z,84.60
2023-05-15T20:54:00.432Z,83.32
2023-05-15T20:56:26.932Z,84.49
2023-05-15T20:58:53.257Z,85.48
2023-05-15T21:01:19.575Z,87.18
2023-05-15T21:03:46.276Z,86.43
2023-05-15T21:06:14.034Z,87.06
2023-05-15T21:08:40.425Z,86.74
2023-05-15T21:11:06.823Z,87.47
2023-05-15T21:13:33.152Z,87.07
2023-05-15T21:15:59.481Z,88.06
2023-05-15T21:18:25.890Z,88.24
2023-05-15T21:20:52.758Z,88.82
2023-05-15T21:23:20.915Z,88.03
2023-05-15T21:25:47.605Z,88.50
2023-05-15T21:28:14.157Z,90.08
2023-05-15T21:30:40.651Z,90.82
2023-05-15T21:33:07.348Z,91.25
2023-05-15T21:51:40.143Z,97.60
2023-05-15T21:54:06.718Z,96.83
2023-05-15T22:02:31.763Z,97.51
2023-05-15T22:04:58.505Z,97.84
2023-05-15T22:07:28.015Z,99.57
2023-05-15T22:09:54.748Z,100.00
2023-05-15T22:12:21.598Z,98.56
2023-05-15T22:14:58.393Z,99.56
2023-05-15T22:17:30.412Z,100.00
2023-05-15T22:20:07.325Z,100.00
2023-05-15T22:22:35.597Z,100.00
2023-05-15T22:25:02.644Z,100.00
2023-05-15T22:27:29.589Z,100.00
2023-05-15T22:30:03.460Z,100.00
2023-05-15T22:32:30.437Z,100.00
2023-05-15T22:34:57.260Z,100.00
2023-05-15T22:37:24.030Z,100.00
2023-05-15T22:39:50.921Z,100.00
2023-05-15T22:42:19.107Z,100.00
2023-05-15T22:44:46.880Z,100.00
2023-05-15T22:47:13.852Z,100.00
2023-05-15T22:49:43.247Z,100.00
2023-05-15T22:52:12.255Z,100.00
2023-05-15T22:54:40.882Z,100.00
2023-05-15T22:57:08.717Z,100.00
2023-05-15T22:59:35.908Z,100.00
2023-05-15T23:02:05.771Z,100.00
2023-05-15T23:04:32.703Z,100.00
2023-05-15T23:06:59.528Z,100.00
2023-05-15T23:09:26.395Z,100.00
2023-05-15T23:11:56.379Z,100.00
2023-05-15T23:14:24.252Z,100.00
2023-05-15T23:19:38.455Z,100.00
2023-05-15T23:22:05.571Z,100.00
2023-05-15T23:24:32.432Z,100.00
2023-05-15T23:26:59.193Z,100.00
2023-05-15T23:29:26.008Z,100.00
2023-05-15T23:31:52.366Z,100.00
2023-05-15T23:34:18.778Z,100.00
2023-05-15T23:36:45.303Z,100.00
2023-05-15T23:39:11.646Z,100.00
2023-05-15T23:41:37.983Z,100.00
2023-05-15T23:44:04.600Z,100.00
2023-05-15T23:46:31.053Z,100.00
2023-05-15T23:48:57.388Z,100.00
2023-05-15T23:51:23.765Z,100.00
2023-05-15T23:53:50.394Z,100.00
2023-05-15T23:56:16.693Z,100.00
2023-05-15T23:58:43.060Z,100.00
